createdAt,value
2022-08-16T00:02:25.416Z,80.40
2022-08-16T00:04:54.067Z,80.39
2022-08-16T00:07:29.111Z,80.70
2022-08-16T00:09:58.024Z,80.74
2022-08-16T00:12:27.429Z,80.95
2022-08-16T00:14:57.217Z,81.11
2022-08-16T00:17:28.129Z,81.21
2022-08-16T00:19:57.543Z,81.37
2022-08-16T00:22:27.790Z,81.59
2022-08-16T00:24:56.396Z,81.51
2022-08-16T00:27:24.936Z,81.52
2022-08-16T00:30:00.492Z,81.74
2022-08-16T00:32:38.765Z,81.65
2022-08-16T00:35:14.928Z,81.97
2022-08-16T00:37:58.920Z,81.97
2022-08-16T00:40:43.926Z,81.72
2022-08-16T00:43:22.760Z,81.72
2022-08-16T00:46:00.075Z,81.91
2022-08-16T00:48:44.156Z,81.99
2022-08-16T00:51:15.940Z,82.39
2022-08-16T00:53:46.471Z,82.55
2022-08-16T00:56:56.494Z,82.74
2022-08-16T00:59:11.321Z,82.95
2022-08-16T01:01:45.089Z,82.95
2022-08-16T01:04:28.877Z,82.91
2022-08-16T01:07:01.722Z,82.94
2022-08-16T01:09:33.821Z,82.91
2022-08-16T01:12:03.216Z,83.04
2022-08-16T01:14:36.467Z,83.09
2022-08-16T01:17:08.325Z,83.13
2022-08-16T01:19:42.870Z,83.26
2022-08-16T01:22:47.408Z,83.16
2022-08-16T01:25:13.841Z,83.25
2022-08-16T01:27:46.197Z,83.42
2022-08-16T01:30:20.261Z,83.36
2022-08-16T01:32:56.387Z,83.63
2022-08-16T01:35:37.103Z,83.79
2022-08-16T01:38:20.811Z,83.94
2022-08-16T01:40:56.455Z,84.19
2022-08-16T01:43:26.805Z,84.29
2022-08-16T01:45:57.746Z,84.23
2022-08-16T01:48:30.382Z,83.87
2022-08-16T01:51:08.926Z,83.65
2022-08-16T01:53:45.310Z,83.58
2022-08-16T01:56:31.268Z,83.58
2022-08-16T01:59:02.959Z,83.55
2022-08-16T02:01:34.016Z,83.24
2022-08-16T02:04:10.977Z,83.04
2022-08-16T02:06:46.921Z,83.25
2022-08-16T02:09:28.734Z,82.95
2022-08-16T02:12:49.794Z,82.86
2022-08-16T02:14:56.656Z,82.78
2022-08-16T02:17:28.395Z,82.82
2022-08-16T02:20:00.083Z,82.77
2022-08-16T02:22:34.252Z,82.71
2022-08-16T02:25:10.033Z,82.81
2022-08-16T02:27:42.344Z,82.58
2022-08-16T02:30:36.747Z,82.66
2022-08-16T02:33:15.457Z,82.67
2022-08-16T02:35:54.397Z,82.85
2022-08-16T02:38:33.129Z,82.53
2022-08-16T02:41:09.581Z,82.33
2022-08-16T02:43:41.283Z,82.21
2022-08-16T02:46:11.115Z,82.42
2022-08-16T02:48:47.430Z,82.20
2022-08-16T02:51:19.345Z,82.25
2022-08-16T02:53:53.121Z,82.61
2022-08-16T02:56:24.212Z,82.47
2022-08-16T02:59:03.035Z,82.52
2022-08-16T03:01:41.657Z,82.63
2022-08-16T03:04:50.657Z,82.78
2022-08-16T03:07:27.766Z,82.91
2022-08-16T03:10:00.485Z,82.78
2022-08-16T03:12:37.899Z,82.47
2022-08-16T03:15:24.423Z,82.69
2022-08-16T03:17:54.281Z,82.69
2022-08-16T03:20:32.185Z,82.90
2022-08-16T03:23:02.239Z,82.81
2022-08-16T03:25:41.031Z,82.81
2022-08-16T03:28:13.269Z,82.91
2022-08-16T03:30:43.264Z,83.13
2022-08-16T03:33:13.344Z,83.03
2022-08-16T03:35:57.086Z,83.29
2022-08-16T03:38:32.760Z,83.42
2022-08-16T03:41:14.409Z,83.73
2022-08-16T03:43:56.025Z,83.60
2022-08-16T03:46:47.883Z,83.94
2022-08-16T03:49:37.053Z,83.93
2022-08-16T03:52:08.409Z,83.93
2022-08-16T03:54:38.420Z,84.18
2022-08-16T03:57:22.570Z,84.34
2022-08-16T03:59:52.754Z,84.61
2022-08-16T04:02:31.765Z,84.72
2022-08-16T04:05:08.475Z,84.61
2022-08-16T04:07:37.440Z,84.68
2022-08-16T04:10:36.233Z,84.87
2022-08-16T04:13:04.083Z,84.70
2022-08-16T04:15:34.504Z,84.87
2022-08-16T04:18:16.339Z,85.09
2022-08-16T04:20:45.646Z,85.18
2022-08-16T04:23:16.150Z,85.00
2022-08-16T04:25:47.112Z,84.84
2022-08-16T04:28:51.438Z,84.57
2022-08-16T04:31:07.334Z,84.16
2022-08-16T04:33:50.565Z,84.58
2022-08-16T04:36:22.280Z,84.72
2022-08-16T04:38:52.716Z,84.56
2022-08-16T04:41:32.784Z,84.47
2022-08-16T04:44:32.831Z,84.49
2022-08-16T04:47:00.862Z,84.28
2022-08-16T04:49:43.939Z,84.45
2022-08-16T04:52:33.936Z,84.45
2022-08-16T04:55:12.078Z,84.33
2022-08-16T04:57:43.654Z,84.19
2022-08-16T05:00:31.235Z,84.09
2022-08-16T05:03:13.973Z,83.88
2022-08-16T05:05:59.216Z,83.59
2022-08-16T05:08:34.562Z,83.26
2022-08-16T05:11:13.992Z,82.96
2022-08-16T05:13:46.530Z,82.85
2022-08-16T05:16:25.150Z,82.87
2022-08-16T05:19:02.971Z,82.48
2022-08-16T05:21:38.857Z,82.35
2022-08-16T05:24:10.808Z,81.94
2022-08-16T05:26:49.546Z,82.39
2022-08-16T05:29:20.722Z,82.57
2022-08-16T05:32:05.630Z,82.53
2022-08-16T05:34:56.851Z,82.84
2022-08-16T05:37:26.795Z,82.76
2022-08-16T05:40:10.630Z,82.85
2022-08-16T05:42:47.611Z,82.80
2022-08-16T05:45:21.438Z,82.92
2022-08-16T05:47:59.465Z,82.79
2022-08-16T05:50:33.826Z,82.78
2022-08-16T05:53:05.320Z,82.74
2022-08-16T05:55:40.580Z,82.33
2022-08-16T05:58:28.972Z,81.75
2022-08-16T06:01:02.733Z,81.57
2022-08-16T06:03:34.382Z,81.27
2022-08-16T06:06:08.533Z,81.20
2022-08-16T06:08:44.720Z,80.35
2022-08-16T06:11:18.983Z,80.37
2022-08-16T06:13:55.378Z,80.39
2022-08-16T06:16:40.854Z,80.09
2022-08-16T06:19:11.011Z,80.01
2022-08-16T06:21:44.892Z,79.85
2022-08-16T06:24:54.572Z,79.60
2022-08-16T06:27:06.513Z,79.34
2022-08-16T06:29:36.255Z,78.89
2022-08-16T06:32:05.074Z,78.44
2022-08-16T06:34:56.011Z,78.50
2022-08-16T06:37:27.317Z,78.45
2022-08-16T06:40:12.947Z,77.72
2022-08-16T06:42:53.977Z,76.98
2022-08-16T06:45:38.001Z,76.78
2022-08-16T06:48:18.767Z,76.41
2022-08-16T06:50:52.006Z,76.18
2022-08-16T06:53:21.397Z,75.83
2022-08-16T06:56:04.164Z,75.17
2022-08-16T06:58:45.052Z,75.78
2022-08-16T07:01:20.127Z,75.15
2022-08-16T07:03:57.336Z,75.04
2022-08-16T07:06:31.874Z,75.63
2022-08-16T07:09:09.676Z,75.38
2022-08-16T07:11:45.747Z,75.15
2022-08-16T07:14:23.722Z,74.13
2022-08-16T07:16:58.332Z,75.10
2022-08-16T07:20:02.579Z,73.73
2022-08-16T07:22:38.829Z,73.49
2022-08-16T07:25:14.497Z,72.98
2022-08-16T07:27:46.998Z,73.14
2022-08-16T07:30:38.542Z,72.95
2022-08-16T07:33:10.423Z,72.23
2022-08-16T07:35:49.791Z,72.51
2022-08-16T07:38:33.586Z,73.40
2022-08-16T07:41:09.626Z,72.69
2022-08-16T07:43:43.361Z,71.80
2022-08-16T07:46:37.784Z,72.11
2022-08-16T07:49:11.469Z,71.48
2022-08-16T07:51:42.458Z,71.00
2022-08-16T07:54:20.987Z,70.67
2022-08-16T07:56:55.765Z,72.05
2022-08-16T07:59:42.763Z,72.51
2022-08-16T08:02:20.377Z,71.90
2022-08-16T08:04:55.619Z,71.96
2022-08-16T08:07:27.526Z,71.43
2022-08-16T08:09:57.747Z,71.64
2022-08-16T08:12:32.182Z,70.55
2022-08-16T08:15:11.307Z,70.28
2022-08-16T08:17:45.346Z,70.52
2022-08-16T08:20:26.612Z,70.26
2022-08-16T08:23:01.654Z,70.03
2022-08-16T08:25:53.791Z,70.48
2022-08-16T08:28:27.522Z,70.30
2022-08-16T08:31:11.751Z,70.45
2022-08-16T08:33:47.548Z,70.35
2022-08-16T08:36:33.423Z,68.56
2022-08-16T08:39:12.665Z,69.22
2022-08-16T08:41:42.507Z,70.13
2022-08-16T08:44:27.803Z,68.56
2022-08-16T08:47:09.362Z,68.10
2022-08-16T08:49:46.790Z,69.16
2022-08-16T08:52:34.603Z,68.75
2022-08-16T08:55:19.555Z,66.36
2022-08-16T08:57:48.356Z,66.98
2022-08-16T09:00:50.194Z,65.91
2022-08-16T09:03:25.237Z,66.24
2022-08-16T09:05:57.031Z,65.56
2022-08-16T09:08:26.622Z,66.07
2022-08-16T09:11:03.141Z,65.01
2022-08-16T09:13:34.119Z,65.25
2022-08-16T09:16:06.670Z,63.92
2022-08-16T09:18:42.607Z,65.56
2022-08-16T09:21:11.831Z,66.53
2022-08-16T09:23:41.023Z,63.03
2022-08-16T09:26:42.992Z,64.88
2022-08-16T09:29:15.608Z,65.58
2022-08-16T09:31:47.282Z,65.68
2022-08-16T09:34:23.119Z,63.83
2022-08-16T09:36:53.912Z,65.28
2022-08-16T09:39:23.186Z,63.99
2022-08-16T09:41:54.360Z,64.21
2022-08-16T09:45:11.553Z,66.42
2022-08-16T09:47:13.325Z,64.98
2022-08-16T09:49:42.942Z,65.96
2022-08-16T09:52:22.289Z,66.14
2022-08-16T09:54:50.774Z,63.18
2022-08-16T09:57:19.115Z,65.38
2022-08-16T09:59:56.248Z,65.56
2022-08-16T10:02:26.945Z,63.60
2022-08-16T10:04:58.822Z,84.28
2022-08-16T10:07:44.032Z,86.98
2022-08-16T10:10:19.087Z,89.58
2022-08-16T10:13:14.295Z,91.82
2022-08-16T10:15:53.397Z,95.84
2022-08-16T10:19:00.208Z,91.74
2022-08-16T10:21:16.475Z,92.82
2022-08-16T10:23:45.003Z,89.24
2022-08-16T10:27:00.649Z,88.86
2022-08-16T10:29:04.833Z,86.61
2022-08-16T10:31:44.171Z,84.72
2022-08-16T10:34:31.922Z,87.53
2022-08-16T10:37:03.017Z,84.10
2022-08-16T10:39:40.588Z,84.48
2022-08-16T10:42:13.363Z,81.05
2022-08-16T10:44:42.292Z,77.36
2022-08-16T10:47:11.699Z,80.21
2022-08-16T10:49:40.237Z,78.89
2022-08-16T10:52:19.070Z,82.47
2022-08-16T10:57:36.657Z,84.23
2022-08-16T11:00:21.008Z,84.05
2022-08-16T11:02:58.817Z,81.35
2022-08-16T11:08:35.111Z,78.11
2022-08-16T11:11:12.879Z,79.95
2022-08-16T11:14:06.355Z,79.19
2022-08-16T11:19:26.211Z,78.08
2022-08-16T11:22:38.705Z,80.25
2022-08-16T11:25:11.790Z,79.59
2022-08-16T11:27:40.460Z,82.44
2022-08-16T11:30:12.206Z,78.19
2022-08-16T11:32:49.405Z,81.11
2022-08-16T11:35:43.401Z,75.77
2022-08-16T11:38:46.394Z,77.97
2022-08-16T11:41:09.881Z,74.86
2022-08-16T11:43:41.730Z,78.88
2022-08-16T11:46:43.821Z,75.31
2022-08-16T11:49:09.868Z,73.45
2022-08-16T11:51:42.518Z,75.30
2022-08-16T11:54:21.781Z,74.51
2022-08-16T11:56:57.485Z,75.00
2022-08-16T11:59:29.616Z,76.70
2022-08-16T12:02:31.367Z,72.95
2022-08-16T12:04:51.773Z,78.65
2022-08-16T12:07:23.917Z,77.60
2022-08-16T12:09:53.463Z,78.11
2022-08-16T12:12:24.917Z,78.81
2022-08-16T12:15:00.125Z,80.16
2022-08-16T12:17:31.482Z,75.28
2022-08-16T12:20:00.791Z,76.09
2022-08-16T12:22:30.006Z,79.07
2022-08-16T12:25:02.605Z,76.58
2022-08-16T12:27:35.260Z,79.01
2022-08-16T12:30:21.795Z,75.67
2022-08-16T12:32:56.507Z,77.27
2022-08-16T12:35:31.300Z,77.25
2022-08-16T12:38:38.257Z,77.66
2022-08-16T12:40:57.080Z,79.10
2022-08-16T12:43:31.453Z,78.08
2022-08-16T12:46:02.282Z,78.03
2022-08-16T12:48:51.169Z,75.84
2022-08-16T12:51:32.874Z,74.31
2022-08-16T12:54:17.339Z,74.99
2022-08-16T12:56:47.029Z,75.83
2022-08-16T12:59:20.166Z,76.95
2022-08-16T13:01:58.168Z,75.29
2022-08-16T13:04:33.228Z,73.19
2022-08-16T13:09:42.838Z,76.47
2022-08-16T13:12:20.050Z,69.63
2022-08-16T13:14:52.036Z,76.63
2022-08-16T13:17:26.359Z,78.39
2022-08-16T13:20:13.642Z,70.40
2022-08-16T13:22:45.510Z,70.02
2022-08-16T13:25:21.014Z,71.57
2022-08-16T13:28:02.019Z,72.63
2022-08-16T13:30:41.900Z,73.22
2022-08-16T13:33:17.577Z,73.95
2022-08-16T13:35:55.800Z,73.44
2022-08-16T13:38:36.831Z,75.60
2022-08-16T13:41:08.414Z,76.12
2022-08-16T13:43:43.842Z,72.95
2022-08-16T13:46:27.020Z,73.97
2022-08-16T13:48:55.920Z,74.19
2022-08-16T13:51:28.961Z,77.05
2022-08-16T13:54:03.843Z,74.62
2022-08-16T13:56:37.482Z,72.59
2022-08-16T13:59:14.422Z,69.16
2022-08-16T14:01:54.941Z,74.52
2022-08-16T14:04:35.404Z,72.19
2022-08-16T14:07:07.789Z,69.29
2022-08-16T14:09:37.377Z,71.56
2022-08-16T14:12:19.969Z,70.97
2022-08-16T14:14:57.329Z,73.71
2022-08-16T14:17:28.960Z,70.25
2022-08-16T14:20:00.176Z,69.34
2022-08-16T14:22:35.585Z,72.92
2022-08-16T14:25:10.242Z,72.50
2022-08-16T14:27:42.244Z,69.87
2022-08-16T14:30:15.613Z,67.04
2022-08-16T14:32:49.916Z,65.49
2022-08-16T14:35:36.379Z,68.70
2022-08-16T14:38:06.148Z,71.70
2022-08-16T14:40:35.558Z,68.31
2022-08-16T14:43:05.671Z,68.48
2022-08-16T14:45:36.915Z,68.51
2022-08-16T14:48:09.197Z,71.01
2022-08-16T14:50:37.758Z,66.75
2022-08-16T14:53:10.353Z,71.10
2022-08-16T14:55:41.251Z,70.04
2022-08-16T14:58:10.421Z,70.36
2022-08-16T15:00:50.306Z,71.23
2022-08-16T15:03:23.714Z,71.26
2022-08-16T15:05:54.273Z,71.28
2022-08-16T15:08:36.275Z,72.70
2022-08-16T15:11:06.032Z,73.87
2022-08-16T15:13:36.362Z,70.85
2022-08-16T15:16:07.815Z,72.00
2022-08-16T15:18:39.267Z,75.95
2022-08-16T15:21:08.723Z,73.41
2022-08-16T15:23:40.456Z,74.01
2022-08-16T15:26:18.810Z,72.97
2022-08-16T15:29:00.021Z,75.18
2022-08-16T15:31:28.580Z,72.87
2022-08-16T15:33:58.526Z,72.48
2022-08-16T15:36:29.247Z,75.64
2022-08-16T15:39:30.410Z,77.34
2022-08-16T15:42:06.720Z,76.41
2022-08-16T15:44:52.016Z,72.72
2022-08-16T15:47:27.026Z,74.36
2022-08-16T15:49:57.925Z,74.55
2022-08-16T15:52:30.420Z,78.92
2022-08-16T15:55:13.385Z,77.43
2022-08-16T15:57:51.314Z,77.33
2022-08-16T16:00:21.182Z,78.43
2022-08-16T16:02:50.086Z,77.56
2022-08-16T16:05:21.402Z,75.45
2022-08-16T16:07:56.492Z,78.60
2022-08-16T16:10:39.421Z,80.14
2022-08-16T16:13:11.065Z,78.16
2022-08-16T16:15:43.228Z,79.07
2022-08-16T16:18:15.245Z,78.34
2022-08-16T16:20:48.167Z,76.86
2022-08-16T16:23:23.708Z,77.32
2022-08-16T16:25:52.651Z,75.69
2022-08-16T16:29:05.246Z,76.91
2022-08-16T16:31:17.065Z,77.08
2022-08-16T16:33:51.304Z,79.24
2022-08-16T16:36:29.397Z,77.27
2022-08-16T16:38:58.432Z,77.31
2022-08-16T16:41:28.290Z,80.40
2022-08-16T16:44:02.888Z,81.68
2022-08-16T16:46:42.803Z,83.90
2022-08-16T16:49:14.639Z,87.38
2022-08-16T16:51:49.641Z,87.92
2022-08-16T16:54:27.843Z,90.15
2022-08-16T16:56:58.299Z,90.81
2022-08-16T16:59:28.129Z,90.98
2022-08-16T17:02:01.390Z,91.01
2022-08-16T17:04:47.188Z,91.13
2022-08-16T17:07:17.523Z,90.89
2022-08-16T17:09:48.922Z,91.22
2022-08-16T17:12:24.535Z,91.85
2022-08-16T17:15:07.619Z,91.26
2022-08-16T17:18:00.098Z,92.08
2022-08-16T17:20:30.185Z,93.60
2022-08-16T17:23:02.595Z,94.39
2022-08-16T17:25:36.397Z,94.33
2022-08-16T17:28:57.575Z,94.32
2022-08-16T17:30:54.638Z,95.46
2022-08-16T17:33:28.518Z,96.89
2022-08-16T17:36:08.743Z,96.74
2022-08-16T17:38:43.880Z,96.30
2022-08-16T17:41:13.413Z,96.37
2022-08-16T17:43:48.575Z,98.22
2022-08-16T17:46:41.450Z,97.81
2022-08-16T17:49:11.560Z,97.44
2022-08-16T17:51:40.034Z,98.35
2022-08-16T17:54:29.745Z,98.49
2022-08-16T17:57:01.639Z,97.68
2022-08-16T17:59:40.570Z,98.36
2022-08-16T18:02:43.104Z,98.84
2022-08-16T18:04:58.301Z,98.63
2022-08-16T18:07:32.295Z,98.71
2022-08-16T18:10:05.729Z,98.13
2022-08-16T18:12:50.855Z,98.48
2022-08-16T18:15:25.228Z,98.96
2022-08-16T18:17:54.214Z,98.82
2022-08-16T18:20:40.912Z,98.88
2022-08-16T18:23:13.827Z,98.78
2022-08-16T18:25:47.730Z,98.78
2022-08-16T18:28:18.979Z,98.63
2022-08-16T18:30:51.375Z,98.43
2022-08-16T18:33:21.732Z,98.95
2022-08-16T18:35:54.380Z,98.58
2022-08-16T18:38:26.052Z,97.55
2022-08-16T18:40:57.561Z,98.58
2022-08-16T18:44:22.901Z,98.35
2022-08-16T18:46:17.636Z,97.97
2022-08-16T18:48:46.437Z,98.13
2022-08-16T18:51:24.376Z,97.68
2022-08-16T18:53:53.565Z,97.45
2022-08-16T18:56:23.439Z,98.80
2022-08-16T18:59:11.808Z,97.97
2022-08-16T19:01:42.898Z,98.00
2022-08-16T19:04:55.187Z,97.96
2022-08-16T19:07:04.908Z,97.78
2022-08-16T19:09:33.238Z,98.49
2022-08-16T19:12:08.906Z,98.55
2022-08-16T19:14:37.202Z,98.24
2022-08-16T19:17:06.104Z,99.11
2022-08-16T19:19:37.158Z,99.48
2022-08-16T19:22:06.606Z,99.65
2022-08-16T19:24:39.267Z,99.75
2022-08-16T19:27:12.957Z,99.20
2022-08-16T19:29:41.798Z,100.06
2022-08-16T19:32:17.264Z,98.89
2022-08-16T19:34:48.813Z,99.84
2022-08-16T19:37:20.927Z,99.10
2022-08-16T19:39:49.262Z,99.97
2022-08-16T19:42:26.632Z,100.17
2022-08-16T19:44:56.364Z,100.06
2022-08-16T19:47:25.545Z,99.99
2022-08-16T19:49:56.447Z,100.00
2022-08-16T19:52:28.743Z,100.17
2022-08-16T19:55:06.457Z,99.88
2022-08-16T19:57:36.973Z,100.25
2022-08-16T20:00:12.407Z,100.05
2022-08-16T20:02:50.964Z,99.87
2022-08-16T20:05:21.919Z,100.01
2022-08-16T20:07:50.436Z,99.84
2022-08-16T20:10:26.939Z,99.80
2022-08-16T20:13:02.330Z,99.66
2022-08-16T20:15:34.216Z,100.17
2022-08-16T20:18:12.492Z,99.89
2022-08-16T20:20:50.175Z,99.77
2022-08-16T20:23:25.593Z,100.19
2022-08-16T20:25:55.723Z,99.94
2022-08-16T20:28:45.089Z,100.00
2022-08-16T20:31:17.712Z,99.76
2022-08-16T20:33:45.936Z,99.40
2022-08-16T20:36:16.153Z,99.71
2022-08-16T20:38:47.413Z,98.90
2022-08-16T20:41:16.491Z,98.21
2022-08-16T20:43:47.549Z,99.59
2022-08-16T20:46:15.931Z,99.11
2022-08-16T20:48:44.464Z,98.48
2022-08-16T20:51:13.195Z,98.29
2022-08-16T20:53:42.639Z,98.70
2022-08-16T20:56:11.891Z,97.52
2022-08-16T20:58:43.183Z,98.82
2022-08-16T21:01:12.962Z,97.92
2022-08-16T21:03:43.845Z,98.35
2022-08-16T21:06:12.121Z,98.59
2022-08-16T21:08:52.117Z,97.76
2022-08-16T21:11:23.611Z,97.50
2022-08-16T21:13:55.368Z,97.94
2022-08-16T21:16:30.495Z,98.02
2022-08-16T21:19:00.929Z,97.77
2022-08-16T21:21:33.577Z,97.92
2022-08-16T21:24:02.691Z,97.69
2022-08-16T21:26:31.391Z,96.87
2022-08-16T21:28:59.759Z,96.14
2022-08-16T21:31:28.317Z,96.81
2022-08-16T21:33:58.051Z,95.54
2022-08-16T21:36:35.496Z,96.55
2022-08-16T21:39:06.754Z,96.49
2022-08-16T21:41:35.644Z,96.17
2022-08-16T21:44:07.921Z,94.76
2022-08-16T21:46:38.283Z,94.55
2022-08-16T21:49:07.953Z,95.47
2022-08-16T21:51:36.303Z,95.95
2022-08-16T21:54:07.181Z,96.28
2022-08-16T21:56:35.545Z,96.55
2022-08-16T21:59:10.986Z,96.97
2022-08-16T22:01:41.736Z,96.78
2022-08-16T22:04:37.757Z,97.73
2022-08-16T22:07:04.778Z,97.55
2022-08-16T22:09:33.315Z,97.81
2022-08-16T22:12:01.697Z,97.51
2022-08-16T22:14:31.291Z,98.06
2022-08-16T22:16:59.650Z,98.13
2022-08-16T22:19:32.108Z,98.23
2022-08-16T22:22:01.705Z,98.30
2022-08-16T22:24:30.428Z,98.91
2022-08-16T22:26:59.192Z,97.98
2022-08-16T22:29:32.765Z,98.81
2022-08-16T22:32:03.202Z,99.10
2022-08-16T22:34:33.421Z,98.89
2022-08-16T22:37:02.287Z,99.10
2022-08-16T22:39:33.677Z,99.71
2022-08-16T22:42:08.246Z,99.78
2022-08-16T22:44:37.865Z,99.67
2022-08-16T22:47:06.336Z,99.90
2022-08-16T22:49:36.108Z,99.81
2022-08-16T22:52:09.470Z,99.86
2022-08-16T22:54:48.403Z,99.39
2022-08-16T22:57:20.209Z,98.43
2022-08-16T22:59:52.686Z,99.87
2022-08-16T23:02:24.040Z,98.36
2022-08-16T23:04:58.247Z,98.12
2022-08-16T23:07:26.623Z,98.27
2022-08-16T23:09:55.179Z,96.64
2022-08-16T23:12:29.125Z,95.49
2022-08-16T23:15:04.353Z,96.81
2022-08-16T23:17:33.926Z,95.24
2022-08-16T23:20:04.049Z,95.74
2022-08-16T23:23:20.796Z,95.95
2022-08-16T23:25:38.023Z,95.27
2022-08-16T23:28:10.910Z,95.68
2022-08-16T23:30:41.615Z,94.78
2022-08-16T23:33:18.379Z,94.85
2022-08-16T23:35:50.899Z,95.65
2022-08-16T23:38:37.428Z,94.11
2022-08-16T23:41:12.707Z,93.85
2022-08-16T23:43:43.679Z,95.65
2022-08-16T23:46:16.911Z,94.95
2022-08-16T23:49:44.916Z,94.07
2022-08-16T23:51:37.233Z,94.65
2022-08-16T23:54:08.384Z,94.63
2022-08-16T23:56:46.434Z,95.04
2022-08-16T23:59:14.803Z,95.30
